X

Important NEWS



New Hub Active

Miami is our new hub! Old members can request transfer via hr@dlxairways.net

Thank you very much and have nice flight.


Deluxe Airways.

X

Tours



Hello again, we created one nice test tour for all pilots to attend. also this is ment to be testing of our tour system

Available Tours

If you find some issues please inform us.

Thank you very much and have nice flight.


Deluxe Airways.

 METAR AND TAF INFORMATION
ArrayMETAR FOR LYBE
30847458 11 LYBE 180300Z 06003KT CAVOK 12/06 Q1018 NOSIG LYBE 2018-10-18T03:00:00Z 44.82 20.28 12.0 6.0 60 3 6.21 30.059055 TRUE VFR METAR 99.0 LYBE 180230Z 09004KT CAVOK 12/06 Q1018 NOSIG LYBE 2018-10-18T02:30:00Z 44.82 20.28 12.0 6.0 90 4 6.21 30.059055 TRUE VFR METAR 99.0 LYBE 180200Z 09004KT CAVOK 13/07 Q1018 NOSIG LYBE 2018-10-18T02:00:00Z 44.82 20.28 13.0 7.0 90 4 6.21 30.059055 TRUE VFR METAR 99.0 LYBE 180130Z 10005KT CAVOK 12/06 Q1018 NOSIG LYBE 2018-10-18T01:30:00Z 44.82 20.28 12.0 6.0 100 5 6.21 30.059055 TRUE VFR METAR 99.0

 AIRPORT MAP

 RUNWAY INFORMATION
Runway 12 Runway length 11155 ft Runway width 148 ft
Runway elevation 318 ft Runway displaced threshold 0 ft Runway heading 122
Runway 30 Runway length 11155 ft Runway width 148 ft
Runway elevation 335 ft Runway displaced threshold 1312 ft Runway heading 302

 AIRPORT FREQUENCIES
Type APP Name APP Frequency 119.1 MHZ
Type ATIS Name INFO Frequency 122.925 MHZ
Type TWR Name TWR Frequency 118.1 MHZ

 AIRPORT NEAR NAVIGATION AIDS
Type VOR-DME Name Beograd Frequency 112300 KHZ
Type NDB Name Beograd Frequency 316 KHZ
Type NDB Name Beograd Frequency 380 KHZ
Type NDB Name Beograd Frequency 355 KHZ



Powered by Virtual Airlines Manager [v2.6.2]

Template code change by DeluxeAir